createdAt,value
2019-05-14T00:00:05.345Z,56.80
2019-05-14T00:01:07.948Z,56.90
2019-05-14T00:02:05.917Z,56.90
2019-05-14T00:03:11.673Z,56.90
2019-05-14T00:04:05.644Z,56.90
2019-05-14T00:05:12.550Z,56.90
2019-05-14T00:06:05.460Z,56.90
2019-05-14T00:07:08.161Z,56.90
2019-05-14T00:08:07.762Z,56.90
2019-05-14T00:09:08.341Z,57.00
2019-05-14T00:10:05.389Z,57.00
2019-05-14T00:11:05.498Z,57.00
2019-05-14T00:12:08.077Z,56.90
2019-05-14T00:13:07.701Z,57.00
2019-05-14T00:14:05.701Z,56.90
2019-05-14T00:15:05.809Z,57.00
2019-05-14T00:16:05.963Z,56.90
2019-05-14T00:17:05.173Z,56.90
2019-05-14T00:18:07.772Z,56.80
2019-05-14T00:19:08.322Z,56.90
2019-05-14T00:20:13.038Z,56.90
2019-05-14T00:21:05.258Z,56.90
2019-05-14T00:22:05.458Z,56.90
2019-05-14T00:23:08.243Z,57.10
2019-05-14T00:24:11.772Z,56.90
2019-05-14T00:25:05.936Z,56.90
2019-05-14T00:26:07.544Z,56.80
2019-05-14T00:27:05.473Z,56.80
2019-05-14T00:28:05.594Z,56.80
2019-05-14T00:29:08.266Z,56.80
2019-05-14T00:30:11.905Z,56.90
2019-05-14T00:31:05.898Z,56.90
2019-05-14T00:32:05.123Z,57.00
2019-05-14T00:33:07.834Z,57.00
2019-05-14T00:34:08.381Z,57.00
2019-05-14T00:35:05.331Z,57.00
2019-05-14T00:36:11.682Z,56.90
2019-05-14T00:37:05.613Z,56.90
2019-05-14T00:38:05.719Z,56.90
2019-05-14T00:39:05.979Z,56.90
2019-05-14T00:40:05.133Z,57.00
2019-05-14T00:41:07.880Z,57.00
2019-05-14T00:42:05.918Z,56.90
2019-05-14T00:43:05.115Z,57.00
2019-05-14T00:44:05.446Z,57.00
2019-05-14T00:45:05.516Z,57.10
2019-05-14T00:46:08.093Z,57.30
2019-05-14T00:47:07.527Z,57.40
2019-05-14T00:48:12.558Z,57.50
2019-05-14T00:49:04.976Z,57.50
2019-05-14T00:50:05.230Z,57.50
2019-05-14T00:51:07.883Z,57.60
2019-05-14T00:52:12.220Z,57.50
2019-05-14T00:53:05.201Z,57.50
2019-05-14T00:54:11.575Z,57.40
2019-05-14T00:55:05.591Z,57.40
2019-05-14T00:56:08.307Z,57.40
2019-05-14T00:57:07.973Z,57.40
2019-05-14T00:58:07.619Z,57.60
2019-05-14T00:59:08.103Z,57.60
2019-05-14T01:00:05.012Z,57.60
2019-05-14T01:01:05.492Z,57.50
2019-05-14T01:02:08.174Z,57.60
2019-05-14T01:03:07.609Z,57.50
2019-05-14T01:04:05.555Z,51.20
2019-05-14T01:05:05.648Z,57.60
2019-05-14T01:06:11.761Z,58.20
2019-05-14T01:07:08.238Z,57.60
2019-05-14T01:08:05.162Z,57.60
2019-05-14T01:09:07.797Z,57.90
2019-05-14T01:10:08.335Z,57.80
2019-05-14T01:11:05.267Z,57.80
2019-05-14T01:12:05.395Z,57.80
2019-05-14T01:13:05.456Z,57.90
2019-05-14T01:14:08.049Z,58.10
2019-05-14T01:15:13.877Z,58.20
2019-05-14T01:16:05.255Z,58.10
2019-05-14T01:17:07.833Z,58.20
2019-05-14T01:18:05.763Z,58.20
2019-05-14T01:19:05.819Z,58.30
2019-05-14T01:20:05.955Z,58.20
2019-05-14T01:21:05.012Z,58.20
2019-05-14T01:22:05.136Z,58.20
2019-05-14T01:23:07.631Z,58.40
2019-05-14T01:24:05.684Z,58.40
2019-05-14T01:25:12.440Z,58.70
2019-05-14T01:26:05.366Z,58.70
2019-05-14T01:27:08.020Z,58.50
2019-05-14T01:28:11.641Z,58.60
2019-05-14T01:29:05.772Z,58.60
2019-05-14T01:30:05.983Z,58.50
2019-05-14T01:31:05.084Z,58.50
2019-05-14T01:32:05.235Z,58.50
2019-05-14T01:33:05.420Z,58.50
2019-05-14T01:34:08.159Z,58.40
2019-05-14T01:35:05.100Z,58.40
2019-05-14T01:36:05.300Z,58.40
2019-05-14T01:37:05.171Z,58.30
2019-05-14T01:38:05.184Z,58.40
2019-05-14T01:39:05.273Z,58.30
2019-05-14T01:40:05.479Z,58.30
2019-05-14T01:42:05.974Z,58.30
2019-05-14T01:44:07.698Z,58.50
2019-05-14T01:45:05.702Z,58.50
2019-05-14T01:46:05.471Z,58.40
2019-05-14T01:47:08.229Z,58.60
2019-05-14T01:48:12.024Z,58.90
2019-05-14T01:49:07.627Z,59.00
2019-05-14T01:50:05.589Z,59.00
2019-05-14T01:51:08.256Z,59.10
2019-05-14T01:52:05.181Z,59.10
2019-05-14T01:53:05.258Z,59.00
2019-05-14T01:54:07.834Z,59.20
2019-05-14T01:55:05.792Z,59.20
2019-05-14T01:56:05.536Z,59.10
2019-05-14T01:57:05.678Z,59.20
2019-05-14T01:58:05.708Z,59.20
2019-05-14T01:59:05.814Z,59.30
2019-05-14T02:00:05.912Z,59.30
2019-05-14T02:01:04.987Z,59.30
2019-05-14T02:02:07.998Z,59.50
2019-05-14T02:03:05.031Z,59.50
2019-05-14T02:04:06.860Z,59.40
2019-05-14T02:05:05.083Z,59.60
2019-05-14T02:06:12.281Z,59.50
2019-05-14T02:07:07.755Z,59.60
2019-05-14T02:08:05.806Z,59.60
2019-05-14T02:09:07.852Z,59.50
2019-05-14T02:10:06.028Z,59.40
2019-05-14T02:11:05.147Z,59.60
2019-05-14T02:12:12.132Z,59.70
2019-05-14T02:13:07.596Z,59.70
2019-05-14T02:14:08.058Z,59.70
2019-05-14T02:15:05.164Z,59.70
2019-05-14T02:16:05.377Z,59.60
2019-05-14T02:17:05.503Z,59.60
2019-05-14T02:18:05.582Z,59.50
2019-05-14T02:19:08.194Z,59.50
2019-05-14T02:20:07.639Z,59.50
2019-05-14T02:21:05.588Z,59.50
2019-05-14T02:22:05.684Z,59.50
2019-05-14T02:23:08.296Z,59.60
2019-05-14T02:24:05.207Z,59.60
2019-05-14T02:25:05.286Z,59.60
2019-05-14T02:26:05.351Z,59.60
2019-05-14T02:27:05.430Z,59.50
2019-05-14T02:28:08.036Z,59.50
2019-05-14T02:29:05.003Z,59.50
2019-05-14T02:30:05.161Z,59.60
2019-05-14T02:31:09.818Z,59.60
2019-05-14T02:32:05.435Z,59.60
2019-05-14T02:33:09.674Z,59.70
2019-05-14T02:34:10.634Z,59.70
2019-05-14T02:35:05.611Z,59.70
2019-05-14T02:36:05.876Z,59.70
2019-05-14T02:37:04.951Z,59.70
2019-05-14T02:38:10.761Z,59.70
2019-05-14T02:39:09.752Z,59.70
2019-05-14T02:40:05.161Z,59.60
2019-05-14T02:41:05.257Z,59.70
2019-05-14T02:42:10.041Z,59.90
2019-05-14T02:43:10.098Z,60.10
2019-05-14T02:44:05.179Z,60.20
2019-05-14T02:45:09.362Z,60.10
2019-05-14T02:46:17.301Z,60.10
2019-05-14T02:47:05.668Z,60.20
2019-05-14T02:48:09.979Z,60.20
2019-05-14T02:49:04.968Z,60.20
2019-05-14T02:50:10.546Z,60.30
2019-05-14T02:51:10.941Z,60.30
2019-05-14T02:52:09.108Z,60.30
2019-05-14T02:53:06.000Z,60.40
2019-05-14T02:54:10.427Z,60.70
2019-05-14T02:55:09.832Z,60.80
2019-05-14T02:56:05.912Z,60.80
2019-05-14T02:57:10.983Z,60.80
2019-05-14T02:58:05.005Z,60.80
2019-05-14T02:59:09.072Z,60.80
2019-05-14T03:00:10.929Z,60.80
2019-05-14T03:01:09.829Z,60.60
2019-05-14T03:02:10.632Z,60.60
2019-05-14T03:03:05.543Z,60.60
2019-05-14T03:04:08.464Z,60.50
2019-05-14T03:05:10.309Z,60.60
2019-05-14T03:06:09.857Z,60.60
2019-05-14T03:07:11.457Z,60.60
2019-05-14T03:08:09.433Z,60.80
2019-05-14T03:09:10.123Z,60.80
2019-05-14T03:10:05.421Z,60.80
2019-05-14T03:11:09.890Z,60.70
2019-05-14T03:12:05.851Z,60.70
2019-05-14T03:13:10.035Z,60.80
2019-05-14T03:14:04.994Z,60.80
2019-05-14T03:15:05.146Z,60.70
2019-05-14T03:16:30.715Z,60.80
2019-05-14T03:17:11.041Z,60.80
2019-05-14T03:18:05.002Z,60.80
2019-05-14T03:19:05.046Z,60.80
2019-05-14T03:20:09.578Z,60.90
2019-05-14T03:21:09.805Z,60.90
2019-05-14T03:22:05.836Z,60.90
2019-05-14T03:23:15.583Z,60.90
2019-05-14T03:24:05.423Z,60.90
2019-05-14T03:25:05.675Z,61.00
2019-05-14T03:26:08.777Z,61.00
2019-05-14T03:27:05.614Z,61.10
2019-05-14T03:28:08.968Z,61.10
2019-05-14T03:29:10.388Z,61.00
2019-05-14T03:30:05.503Z,61.00
2019-05-14T03:31:13.486Z,61.00
2019-05-14T03:32:05.462Z,61.10
2019-05-14T03:33:14.080Z,61.10
2019-05-14T03:34:05.129Z,61.10
2019-05-14T03:35:05.522Z,61.10
2019-05-14T03:36:16.159Z,61.00
2019-05-14T03:37:14.089Z,60.90
2019-05-14T03:38:05.315Z,60.90
2019-05-14T03:39:05.543Z,60.90
2019-05-14T03:40:09.720Z,60.80
2019-05-14T03:41:05.695Z,60.80
2019-05-14T03:42:09.932Z,60.80
2019-05-14T03:43:04.978Z,60.80
2019-05-14T03:44:05.126Z,60.80
2019-05-14T03:45:09.007Z,61.00
2019-05-14T03:46:05.134Z,60.90
2019-05-14T03:47:10.513Z,60.90
2019-05-14T03:48:10.868Z,61.00
2019-05-14T03:49:09.495Z,61.00
2019-05-14T03:50:10.635Z,61.10
2019-05-14T03:51:08.846Z,61.00
2019-05-14T03:52:10.512Z,61.00
2019-05-14T03:53:10.503Z,60.90
2019-05-14T03:54:13.564Z,60.90
2019-05-14T03:55:05.448Z,60.90
2019-05-14T03:56:10.734Z,60.90
2019-05-14T03:57:08.724Z,60.90
2019-05-14T03:58:05.334Z,60.90
2019-05-14T03:59:10.056Z,60.90
2019-05-14T04:00:05.164Z,60.90
2019-05-14T04:01:10.025Z,61.10
2019-05-14T04:02:05.090Z,61.10
2019-05-14T04:03:10.134Z,61.10
2019-05-14T04:04:05.332Z,61.10
2019-05-14T04:05:05.505Z,61.10
2019-05-14T04:06:10.465Z,61.20
2019-05-14T04:07:08.673Z,61.20
2019-05-14T04:08:05.708Z,61.10
2019-05-14T04:09:05.853Z,61.20
2019-05-14T04:10:05.817Z,61.40
2019-05-14T04:11:10.023Z,62.50
2019-05-14T04:12:05.052Z,62.50
2019-05-14T04:13:09.439Z,62.70
2019-05-14T04:14:05.633Z,62.80
2019-05-14T04:15:06.317Z,62.70
2019-05-14T04:16:10.555Z,62.20
2019-05-14T04:17:15.839Z,61.90
2019-05-14T04:18:05.337Z,62.00
2019-05-14T04:19:10.386Z,61.00
2019-05-14T04:20:09.937Z,60.80
2019-05-14T04:21:05.040Z,60.90
2019-05-14T04:22:10.536Z,59.90
2019-05-14T04:23:06.498Z,59.90
2019-05-14T04:24:05.204Z,59.50
2019-05-14T04:25:05.708Z,59.20
2019-05-14T04:26:09.653Z,59.00
2019-05-14T04:27:13.610Z,58.70
2019-05-14T04:28:05.821Z,58.20
2019-05-14T04:29:05.965Z,57.90
2019-05-14T04:30:05.032Z,57.70
2019-05-14T04:31:05.155Z,57.30
2019-05-14T04:32:05.403Z,56.60
2019-05-14T04:33:11.072Z,55.90
2019-05-14T04:34:11.073Z,55.70
2019-05-14T04:35:05.018Z,55.70
2019-05-14T04:36:05.345Z,55.10
2019-05-14T04:37:05.497Z,54.60
2019-05-14T04:38:05.742Z,53.90
2019-05-14T04:39:09.058Z,53.60
2019-05-14T04:40:05.409Z,53.50
2019-05-14T04:41:10.793Z,52.70
2019-05-14T04:42:10.093Z,52.20
2019-05-14T04:43:05.113Z,52.20
2019-05-14T04:44:05.141Z,52.00
2019-05-14T04:45:06.344Z,50.90
2019-05-14T04:46:11.060Z,50.10
2019-05-14T04:47:31.660Z,50.20
2019-05-14T04:48:33.478Z,49.90
2019-05-14T04:49:10.106Z,50.10
2019-05-14T04:50:11.264Z,49.20
2019-05-14T04:51:05.341Z,49.20
2019-05-14T04:52:05.450Z,48.80
2019-05-14T04:53:08.736Z,48.30
2019-05-14T04:54:04.986Z,47.80
2019-05-14T04:55:05.096Z,47.00
2019-05-14T04:56:10.505Z,46.40
2019-05-14T04:57:10.933Z,45.50
2019-05-14T04:58:05.959Z,45.30
2019-05-14T04:59:10.856Z,44.60
2019-05-14T05:00:05.072Z,44.60
2019-05-14T05:01:05.241Z,44.30
2019-05-14T05:02:05.343Z,44.20
2019-05-14T05:03:12.966Z,42.70
2019-05-14T05:04:05.259Z,42.30
2019-05-14T05:05:09.358Z,42.20
2019-05-14T05:06:05.520Z,41.80
2019-05-14T05:07:05.624Z,41.30
2019-05-14T05:08:08.713Z,41.10
2019-05-14T05:09:09.871Z,39.90
2019-05-14T05:10:05.951Z,39.80
2019-05-14T05:11:09.827Z,38.50
2019-05-14T05:12:09.507Z,38.50
2019-05-14T05:13:05.691Z,38.50
2019-05-14T05:14:09.349Z,38.50
2019-05-14T05:15:09.839Z,38.10
2019-05-14T05:16:05.890Z,38.00
2019-05-14T05:17:05.072Z,37.30
2019-05-14T05:18:05.256Z,36.90
2019-05-14T05:19:05.400Z,37.10
2019-05-14T05:20:15.570Z,35.50
2019-05-14T05:21:10.649Z,35.70
2019-05-14T05:22:07.446Z,35.70
2019-05-14T05:23:08.898Z,36.30
2019-05-14T05:24:09.599Z,36.00
2019-05-14T05:25:10.726Z,36.00
2019-05-14T05:26:09.593Z,36.20
2019-05-14T05:27:10.655Z,36.10
2019-05-14T05:28:05.019Z,36.20
2019-05-14T05:29:10.433Z,36.10
2019-05-14T05:30:08.191Z,36.20
2019-05-14T05:31:09.572Z,36.10
2019-05-14T05:32:09.054Z,35.20
2019-05-14T05:33:09.436Z,35.30
2019-05-14T05:34:05.460Z,35.40
2019-05-14T05:35:05.696Z,35.20
2019-05-14T05:36:05.786Z,35.20
2019-05-14T05:37:11.003Z,35.30
2019-05-14T05:38:04.998Z,35.30
2019-05-14T05:39:05.237Z,35.10
2019-05-14T05:40:10.417Z,34.70
2019-05-14T05:41:05.336Z,34.70
2019-05-14T05:42:05.552Z,34.00
2019-05-14T05:43:09.330Z,33.70
2019-05-14T05:44:05.477Z,33.70
2019-05-14T05:45:08.542Z,32.60
2019-05-14T05:46:05.603Z,32.60
2019-05-14T05:47:05.454Z,32.50
2019-05-14T05:48:08.457Z,32.60
2019-05-14T05:49:08.510Z,32.50
2019-05-14T05:50:05.536Z,32.60
2019-05-14T05:51:09.541Z,32.70
2019-05-14T05:52:08.970Z,32.80
2019-05-14T05:53:05.141Z,32.70
2019-05-14T05:54:05.267Z,32.70
2019-05-14T05:55:09.372Z,31.90
2019-05-14T05:56:05.371Z,31.80
2019-05-14T05:57:05.613Z,31.80
2019-05-14T05:58:09.041Z,29.50
2019-05-14T05:59:05.059Z,29.60
2019-05-14T06:00:06.017Z,29.10
2019-05-14T06:01:10.178Z,30.30
2019-05-14T06:02:05.223Z,30.30
2019-05-14T06:03:05.345Z,30.80
2019-05-14T06:04:05.430Z,31.40
2019-05-14T06:05:07.853Z,31.00
2019-05-14T06:06:05.296Z,30.90
2019-05-14T06:07:05.516Z,31.20
2019-05-14T06:08:08.428Z,31.30
2019-05-14T06:09:05.564Z,31.30
2019-05-14T06:10:07.890Z,32.00
2019-05-14T06:11:08.829Z,31.50
2019-05-14T06:12:09.162Z,31.40
2019-05-14T06:13:05.388Z,31.40
2019-05-14T06:14:05.475Z,31.50
2019-05-14T06:15:05.354Z,31.60
2019-05-14T06:16:05.612Z,31.50
2019-05-14T06:17:09.074Z,32.10
2019-05-14T06:18:19.121Z,32.10
2019-05-14T06:19:08.479Z,32.20
2019-05-14T06:20:05.622Z,32.40
2019-05-14T06:21:05.898Z,32.60
2019-05-14T06:22:05.277Z,32.70
2019-05-14T06:23:05.462Z,33.00
2019-05-14T06:24:09.438Z,32.80
2019-05-14T06:25:09.916Z,32.90
2019-05-14T06:26:11.916Z,33.40
2019-05-14T06:27:05.047Z,33.70
2019-05-14T06:28:09.069Z,34.00
2019-05-14T06:29:08.953Z,34.00
2019-05-14T06:30:05.183Z,34.00
2019-05-14T06:31:08.954Z,34.30
2019-05-14T06:32:19.081Z,34.90
2019-05-14T06:33:09.628Z,35.30
2019-05-14T06:34:05.601Z,35.30
2019-05-14T06:35:09.234Z,35.60
2019-05-14T06:36:05.273Z,35.60
2019-05-14T06:37:08.775Z,35.20
2019-05-14T06:38:05.808Z,35.20
2019-05-14T06:39:05.942Z,35.30
2019-05-14T06:40:09.188Z,35.30
2019-05-14T06:41:05.138Z,35.00
2019-05-14T06:42:05.271Z,35.10
2019-05-14T06:43:09.565Z,35.30
2019-05-14T06:44:05.575Z,35.30
2019-05-14T06:45:09.392Z,36.00
2019-05-14T06:46:09.416Z,36.10
2019-05-14T06:47:05.013Z,36.00
2019-05-14T06:48:05.170Z,35.90
2019-05-14T06:49:09.521Z,36.30
2019-05-14T06:50:05.467Z,36.30
2019-05-14T06:51:05.758Z,36.80
2019-05-14T06:52:05.185Z,36.40
2019-05-14T06:53:05.401Z,36.60
2019-05-14T06:54:10.637Z,36.60
2019-05-14T06:55:09.408Z,37.20
2019-05-14T06:56:07.585Z,37.20
2019-05-14T06:57:09.381Z,37.30
2019-05-14T06:58:05.500Z,37.40
2019-05-14T06:59:09.402Z,37.60
2019-05-14T07:00:08.718Z,37.80
2019-05-14T07:01:10.778Z,38.00
2019-05-14T07:02:10.809Z,38.10
2019-05-14T07:03:09.386Z,38.00
2019-05-14T07:04:09.196Z,38.20
2019-05-14T07:05:08.700Z,38.30
2019-05-14T07:06:05.803Z,38.30
2019-05-14T07:07:05.160Z,38.40
2019-05-14T07:08:12.878Z,39.00
2019-05-14T07:09:08.560Z,39.00
2019-05-14T07:10:05.595Z,38.90
2019-05-14T07:11:05.602Z,39.00
2019-05-14T07:12:05.544Z,39.10
2019-05-14T07:13:08.382Z,39.10
2019-05-14T07:14:11.658Z,39.10
2019-05-14T07:15:09.740Z,39.30
2019-05-14T07:16:05.767Z,39.30
2019-05-14T07:17:05.985Z,39.30
2019-05-14T07:18:05.095Z,39.40
2019-05-14T07:19:18.913Z,39.80
2019-05-14T07:20:05.172Z,39.80
2019-05-14T07:21:05.291Z,39.70
2019-05-14T07:22:05.582Z,39.80
2019-05-14T07:23:08.419Z,40.70
2019-05-14T07:24:05.529Z,41.00
2019-05-14T07:25:10.278Z,41.00
2019-05-14T07:26:05.349Z,41.00
2019-05-14T07:27:05.492Z,41.00
2019-05-14T07:28:05.561Z,41.00
2019-05-14T07:29:11.197Z,41.20
2019-05-14T07:30:09.370Z,41.10
2019-05-14T07:31:05.386Z,41.10
2019-05-14T07:32:09.433Z,41.10
2019-05-14T07:33:05.396Z,41.10
2019-05-14T07:34:05.616Z,41.00
2019-05-14T07:35:09.550Z,40.90
2019-05-14T07:36:05.671Z,40.90
2019-05-14T07:37:09.773Z,41.00
2019-05-14T07:38:05.671Z,40.90
2019-05-14T07:39:09.802Z,41.10
2019-05-14T07:40:08.351Z,41.20
2019-05-14T07:41:05.616Z,41.20
2019-05-14T07:42:10.261Z,41.10
2019-05-14T07:43:05.301Z,41.10
2019-05-14T07:44:05.557Z,40.80
2019-05-14T07:45:05.880Z,40.80
2019-05-14T07:46:05.013Z,41.10
2019-05-14T07:47:08.586Z,40.10
2019-05-14T07:48:09.807Z,40.30
2019-05-14T07:49:11.945Z,40.30
2019-05-14T07:50:05.075Z,40.30
2019-05-14T07:51:05.310Z,40.10
2019-05-14T07:52:10.576Z,40.00
2019-05-14T07:53:05.582Z,40.10
2019-05-14T07:54:08.126Z,39.90
2019-05-14T07:55:09.672Z,39.60
2019-05-14T07:56:05.677Z,39.60
2019-05-14T07:57:08.425Z,39.40
2019-05-14T07:58:08.165Z,39.90
2019-05-14T07:59:09.333Z,40.30
2019-05-14T08:00:05.293Z,40.20
2019-05-14T08:01:09.868Z,38.90
2019-05-14T08:02:11.181Z,38.00
2019-05-14T08:03:08.570Z,38.70
2019-05-14T08:04:05.500Z,38.70
2019-05-14T08:05:05.146Z,38.80
2019-05-14T08:06:05.372Z,39.10
2019-05-14T08:07:05.627Z,39.40
2019-05-14T08:08:07.694Z,39.40
2019-05-14T08:09:08.965Z,38.70
2019-05-14T08:10:05.942Z,38.70
2019-05-14T08:11:09.132Z,38.90
2019-05-14T08:12:05.116Z,38.90
2019-05-14T08:13:05.400Z,39.00
2019-05-14T08:14:05.548Z,38.30
2019-05-14T08:15:19.617Z,38.70
2019-05-14T08:16:05.372Z,39.30
2019-05-14T08:17:09.005Z,36.50
2019-05-14T08:18:08.538Z,36.80
2019-05-14T08:19:27.201Z,36.80
2019-05-14T08:20:05.940Z,36.50
2019-05-14T08:21:08.845Z,36.40
2019-05-14T08:22:06.068Z,36.40
2019-05-14T08:23:05.206Z,36.50
2019-05-14T08:24:05.311Z,36.20
2019-05-14T08:25:05.621Z,36.60
2019-05-14T08:26:10.854Z,36.80
2019-05-14T08:27:05.928Z,36.90
2019-05-14T08:28:05.074Z,36.80
2019-05-14T08:29:09.038Z,37.40
2019-05-14T08:30:05.065Z,37.50
2019-05-14T08:31:09.882Z,37.90
2019-05-14T08:32:09.323Z,37.90
2019-05-14T08:33:10.551Z,37.50
2019-05-14T08:34:09.332Z,37.50
2019-05-14T08:35:09.449Z,36.90
2019-05-14T08:36:05.207Z,37.00
2019-05-14T08:37:08.070Z,37.40
2019-05-14T08:38:12.350Z,37.00
2019-05-14T08:39:13.193Z,35.80
2019-05-14T08:40:09.902Z,35.80
2019-05-14T08:41:15.387Z,35.90
2019-05-14T08:42:08.920Z,35.20
2019-05-14T08:43:06.010Z,35.30
2019-05-14T08:44:09.037Z,35.40
2019-05-14T08:45:13.945Z,35.90
2019-05-14T08:46:05.177Z,35.80
2019-05-14T08:47:10.006Z,36.40
2019-05-14T08:48:09.553Z,36.30
2019-05-14T08:49:10.624Z,36.60
2019-05-14T08:50:10.665Z,36.80
2019-05-14T08:51:05.699Z,36.80
2019-05-14T08:52:10.854Z,37.70
2019-05-14T08:53:05.816Z,37.70
2019-05-14T08:54:08.548Z,36.50
2019-05-14T08:55:13.844Z,35.50
2019-05-14T08:56:12.123Z,36.20
2019-05-14T08:57:10.353Z,36.00
2019-05-14T08:58:10.978Z,36.00
2019-05-14T08:59:10.189Z,35.20
2019-05-14T09:00:05.195Z,35.20
2019-05-14T09:01:05.310Z,35.50
2019-05-14T09:02:10.398Z,36.00
2019-05-14T09:03:08.854Z,36.00
2019-05-14T09:04:08.767Z,36.10
2019-05-14T09:05:09.823Z,36.00
2019-05-14T09:06:09.568Z,36.20
2019-05-14T09:07:05.525Z,36.30
2019-05-14T09:08:05.759Z,36.00
2019-05-14T09:09:05.815Z,36.80
2019-05-14T09:10:08.464Z,36.50
2019-05-14T09:11:10.765Z,36.50
2019-05-14T09:12:12.987Z,36.50
2019-05-14T09:13:04.989Z,36.50
2019-05-14T09:14:05.046Z,35.60
2019-05-14T09:15:05.281Z,35.40
2019-05-14T09:16:09.672Z,35.70
2019-05-14T09:17:05.675Z,35.70
2019-05-14T09:18:05.902Z,35.80
2019-05-14T09:19:05.022Z,34.50
2019-05-14T09:20:10.943Z,35.10
2019-05-14T09:21:05.548Z,35.70
2019-05-14T09:22:05.711Z,33.40
2019-05-14T09:23:08.537Z,32.70
2019-05-14T09:24:09.919Z,31.40
2019-05-14T09:25:08.784Z,31.40
2019-05-14T09:26:05.857Z,31.20
2019-05-14T09:27:08.224Z,31.40
2019-05-14T09:28:05.666Z,29.80
2019-05-14T09:29:25.442Z,29.30
2019-05-14T09:30:10.113Z,30.40
2019-05-14T09:31:08.981Z,30.60
2019-05-14T09:32:05.094Z,30.50
2019-05-14T09:33:08.987Z,31.10
2019-05-14T09:34:09.573Z,32.20
2019-05-14T09:35:10.227Z,32.10
2019-05-14T09:36:22.894Z,32.00
2019-05-14T09:37:09.002Z,31.70
2019-05-14T09:38:05.297Z,31.80
2019-05-14T09:39:05.494Z,32.20
2019-05-14T09:40:13.178Z,32.00
2019-05-14T09:41:15.163Z,31.90
2019-05-14T09:42:08.606Z,30.10
2019-05-14T09:43:09.579Z,30.50
2019-05-14T09:44:05.582Z,30.40
2019-05-14T09:45:09.873Z,30.80
2019-05-14T09:46:05.847Z,30.40
2019-05-14T09:47:09.035Z,31.10
2019-05-14T09:48:05.247Z,31.00
2019-05-14T09:49:07.879Z,30.60
2019-05-14T09:50:23.059Z,30.70
2019-05-14T09:51:09.635Z,31.10
2019-05-14T09:52:05.567Z,31.10
2019-05-14T09:53:05.683Z,31.20
2019-05-14T09:54:08.907Z,31.30
2019-05-14T09:55:10.062Z,31.20
2019-05-14T09:56:09.518Z,31.30
2019-05-14T09:57:07.742Z,31.30
2019-05-14T09:58:05.354Z,31.90
2019-05-14T09:59:09.693Z,31.60
2019-05-14T10:00:05.689Z,31.60
2019-05-14T10:01:08.804Z,31.70
2019-05-14T10:02:05.841Z,32.20
2019-05-14T10:03:09.902Z,32.30
2019-05-14T10:04:09.572Z,32.30
2019-05-14T10:05:05.634Z,32.30
2019-05-14T10:06:05.916Z,32.10
2019-05-14T10:07:09.158Z,32.30
2019-05-14T10:08:05.333Z,32.30
2019-05-14T10:09:05.449Z,32.70
2019-05-14T10:10:05.702Z,32.60
2019-05-14T10:11:08.469Z,33.00
2019-05-14T10:12:05.483Z,33.00
2019-05-14T10:13:10.156Z,33.30
2019-05-14T10:14:07.786Z,33.30
2019-05-14T10:15:09.039Z,33.50
2019-05-14T10:16:09.916Z,34.20
2019-05-14T10:17:08.744Z,34.60
2019-05-14T10:18:12.751Z,34.70
2019-05-14T10:19:05.843Z,34.80
2019-05-14T10:20:05.005Z,35.10
2019-05-14T10:21:09.042Z,35.50
2019-05-14T10:22:05.046Z,35.50
2019-05-14T10:23:05.318Z,35.90
2019-05-14T10:24:05.518Z,35.80
2019-05-14T10:25:09.537Z,36.70
2019-05-14T10:26:10.684Z,36.80
2019-05-14T10:27:09.455Z,36.60
2019-05-14T10:28:08.977Z,35.90
2019-05-14T10:29:05.011Z,35.90
2019-05-14T10:30:04.988Z,35.80
2019-05-14T10:31:12.831Z,35.30
2019-05-14T10:32:09.138Z,35.30
2019-05-14T10:33:14.847Z,34.50
2019-05-14T10:34:05.385Z,34.40
2019-05-14T10:35:08.372Z,34.10
2019-05-14T10:36:09.569Z,33.80
2019-05-14T10:37:09.048Z,34.60
2019-05-14T10:38:09.169Z,34.70
2019-05-14T10:39:09.796Z,35.30
2019-05-14T10:40:05.858Z,35.30
2019-05-14T10:41:05.007Z,35.90
2019-05-14T10:42:05.201Z,36.30
2019-05-14T10:43:05.382Z,36.60
2019-05-14T10:44:05.579Z,37.00
2019-05-14T10:45:13.046Z,37.30
2019-05-14T10:46:05.330Z,37.30
2019-05-14T10:47:10.677Z,38.10
2019-05-14T10:48:10.043Z,38.40
2019-05-14T10:49:23.373Z,38.40
2019-05-14T10:50:05.020Z,38.90
2019-05-14T10:51:10.094Z,38.80
2019-05-14T10:52:05.127Z,38.80
2019-05-14T10:53:05.355Z,38.80
2019-05-14T10:54:25.730Z,39.10
2019-05-14T10:55:08.468Z,38.60
2019-05-14T10:56:05.405Z,38.60
2019-05-14T10:57:10.075Z,37.80
2019-05-14T10:58:09.327Z,37.20
2019-05-14T10:59:05.786Z,37.30
2019-05-14T11:00:09.162Z,37.30
2019-05-14T11:01:05.451Z,36.60
2019-05-14T11:02:12.444Z,37.00
2019-05-14T11:03:07.982Z,37.20
2019-05-14T11:04:07.501Z,37.40
2019-05-14T11:05:08.073Z,37.40
2019-05-14T11:06:05.139Z,37.40
2019-05-14T11:07:07.928Z,38.00
2019-05-14T11:08:12.375Z,39.20
2019-05-14T11:09:05.466Z,39.20
2019-05-14T11:10:05.600Z,39.40
2019-05-14T11:11:13.332Z,40.40
2019-05-14T11:12:09.400Z,41.50
2019-05-14T11:13:05.408Z,41.50
2019-05-14T11:14:05.071Z,41.30
2019-05-14T11:15:05.141Z,41.60
2019-05-14T11:16:05.232Z,41.60
2019-05-14T11:17:12.141Z,42.30
2019-05-14T11:18:05.176Z,42.30
2019-05-14T11:19:05.511Z,41.60
2019-05-14T11:20:11.094Z,42.50
2019-05-14T11:21:26.276Z,42.50
2019-05-14T11:22:08.246Z,42.30
2019-05-14T11:23:05.406Z,42.00
2019-05-14T11:24:09.872Z,42.40
2019-05-14T11:25:09.629Z,42.00
2019-05-14T11:26:09.585Z,41.70
2019-05-14T11:27:05.495Z,41.70
2019-05-14T11:28:05.801Z,41.30
2019-05-14T11:29:11.076Z,41.30
2019-05-14T11:30:05.155Z,41.20
2019-05-14T11:31:05.301Z,40.20
2019-05-14T11:32:05.351Z,40.00
2019-05-14T11:33:09.496Z,40.80
2019-05-14T11:34:08.059Z,40.70
2019-05-14T11:35:05.319Z,39.60
2019-05-14T11:36:09.571Z,39.20
2019-05-14T11:37:08.752Z,39.80
2019-05-14T11:38:33.109Z,39.90
2019-05-14T11:39:09.770Z,41.10
2019-05-14T11:40:05.918Z,41.10
2019-05-14T11:41:05.108Z,41.50
2019-05-14T11:42:05.365Z,41.30
2019-05-14T11:43:24.572Z,41.20
2019-05-14T11:44:05.588Z,41.10
2019-05-14T11:45:05.789Z,40.50
2019-05-14T11:46:04.969Z,40.60
2019-05-14T11:47:09.464Z,40.00
2019-05-14T11:48:09.272Z,39.80
2019-05-14T11:49:05.279Z,39.80
2019-05-14T11:50:05.381Z,40.40
2019-05-14T11:51:05.513Z,40.90
2019-05-14T11:52:11.833Z,41.60
2019-05-14T11:53:08.900Z,40.80
2019-05-14T11:54:09.840Z,41.40
2019-05-14T11:55:05.962Z,41.40
2019-05-14T11:56:09.159Z,41.60
2019-05-14T11:57:12.133Z,41.40
2019-05-14T11:58:05.360Z,41.40
2019-05-14T11:59:08.146Z,40.20
2019-05-14T12:00:05.651Z,39.30
2019-05-14T12:01:09.607Z,39.10
2019-05-14T12:02:05.661Z,39.00
2019-05-14T12:03:05.608Z,38.30
2019-05-14T12:04:08.692Z,38.00
2019-05-14T12:05:09.290Z,39.50
2019-05-14T12:06:10.238Z,38.00
2019-05-14T12:07:05.243Z,38.00
2019-05-14T12:08:05.325Z,37.60
2019-05-14T12:09:05.529Z,38.20
2019-05-14T12:10:05.652Z,38.50
2019-05-14T12:11:09.113Z,36.50
2019-05-14T12:12:12.827Z,36.50
2019-05-14T12:13:08.991Z,36.30
2019-05-14T12:14:10.148Z,36.70
2019-05-14T12:15:05.253Z,36.70
2019-05-14T12:16:08.939Z,36.70
2019-05-14T12:17:05.008Z,36.60
2019-05-14T12:18:10.818Z,36.70
2019-05-14T12:19:05.852Z,36.80
2019-05-14T12:20:07.512Z,37.30
2019-05-14T12:21:09.363Z,37.30
2019-05-14T12:22:12.021Z,37.30
2019-05-14T12:23:15.482Z,38.00
2019-05-14T12:24:13.388Z,38.00
2019-05-14T12:25:08.630Z,38.50
2019-05-14T12:26:05.650Z,38.50
2019-05-14T12:27:08.978Z,38.70
2019-05-14T12:28:13.899Z,38.70
2019-05-14T12:29:10.259Z,38.80
2019-05-14T12:30:05.363Z,38.80
2019-05-14T12:31:05.529Z,38.10
2019-05-14T12:32:13.236Z,38.00
2019-05-14T12:33:05.329Z,38.00
2019-05-14T12:34:07.954Z,37.90
2019-05-14T12:35:08.996Z,38.20
2019-05-14T12:36:10.746Z,38.70
2019-05-14T12:37:05.984Z,38.70
2019-05-14T12:38:10.310Z,37.30
2019-05-14T12:39:10.065Z,37.30
2019-05-14T12:40:05.157Z,37.20
2019-05-14T12:41:05.088Z,37.80
2019-05-14T12:42:11.472Z,37.00
2019-05-14T12:43:05.598Z,37.00
2019-05-14T12:44:08.936Z,36.80
2019-05-14T12:45:09.605Z,36.70
2019-05-14T12:46:05.729Z,36.60
2019-05-14T12:47:09.869Z,37.50
2019-05-14T12:48:09.680Z,37.00
2019-05-14T12:49:05.841Z,37.00
2019-05-14T12:50:09.847Z,36.50
2019-05-14T12:51:09.450Z,36.40
2019-05-14T12:52:25.648Z,36.30
2019-05-14T12:53:08.807Z,35.30
2019-05-14T12:54:06.034Z,35.30